sensor_id;sensor_type;location;lat;lon;timestamp;P1;durP1;ratioP1;P2;durP2;ratioP2
3643;SDS011;1838;50.742;7.158;2023-04-10T00:01:13;15.07;;;7.90;;
3643;SDS011;1838;50.742;7.158;2023-04-10T00:03:38;9.33;;;6.60;;
3643;SDS011;1838;50.742;7.158;2023-04-10T00:06:05;9.43;;;6.60;;
3643;SDS011;1838;50.742;7.158;2023-04-10T00:08:31;12.27;;;7.43;;
3643;SDS011;1838;50.742;7.158;2023-04-10T00:10:57;10.23;;;7.00;;
3643;SDS011;1838;50.742;7.158;2023-04-10T00:13:22;9.83;;;6.60;;
3643;SDS011;1838;50.742;7.158;2023-04-10T00:15:48;11.40;;;7.10;;
3643;SDS011;1838;50.742;7.158;2023-04-10T00:18:14;12.00;;;7.80;;
3643;SDS011;1838;50.742;7.158;2023-04-10T00:20:40;8.53;;;6.57;;
3643;SDS011;1838;50.742;7.158;2023-04-10T00:23:06;8.60;;;6.60;;
3643;SDS011;1838;50.742;7.158;2023-04-10T00:25:32;9.27;;;6.90;;
3643;SDS011;1838;50.742;7.158;2023-04-10T00:27:57;10.50;;;6.87;;
3643;SDS011;1838;50.742;7.158;2023-04-10T00:30:23;10.63;;;6.40;;
3643;SDS011;1838;50.742;7.158;2023-04-10T00:32:48;12.80;;;7.90;;
3643;SDS011;1838;50.742;7.158;2023-04-10T00:35:14;16.30;;;8.20;;
3643;SDS011;1838;50.742;7.158;2023-04-10T00:37:39;12.90;;;7.87;;
3643;SDS011;1838;50.742;7.158;2023-04-10T00:40:05;11.57;;;8.03;;
3643;SDS011;1838;50.742;7.158;2023-04-10T00:42:31;11.83;;;7.20;;
3643;SDS011;1838;50.742;7.158;2023-04-10T00:44:57;11.40;;;7.30;;
3643;SDS011;1838;50.742;7.158;2023-04-10T00:47:24;10.40;;;7.53;;
3643;SDS011;1838;50.742;7.158;2023-04-10T00:49:51;11.53;;;7.57;;
3643;SDS011;1838;50.742;7.158;2023-04-10T00:52:17;11.13;;;7.60;;
3643;SDS011;1838;50.742;7.158;2023-04-10T00:54:43;11.23;;;7.20;;
3643;SDS011;1838;50.742;7.158;2023-04-10T00:57:08;11.60;;;6.93;;
3643;SDS011;1838;50.742;7.158;2023-04-10T00:59:35;10.77;;;7.03;;
3643;SDS011;1838;50.742;7.158;2023-04-10T01:02:01;10.27;;;6.80;;
3643;SDS011;1838;50.742;7.158;2023-04-10T01:04:27;16.27;;;8.03;;
3643;SDS011;1838;50.742;7.158;2023-04-10T01:06:58;10.80;;;6.93;;
3643;SDS011;1838;50.742;7.158;2023-04-10T01:09:52;10.73;;;6.70;;
3643;SDS011;1838;50.742;7.158;2023-04-10T01:15:15;15.80;;;8.93;;
3643;SDS011;1838;50.742;7.158;2023-04-10T01:18:18;12.47;;;8.03;;
3643;SDS011;1838;50.742;7.158;2023-04-10T01:20:46;13.40;;;8.33;;
3643;SDS011;1838;50.742;7.158;2023-04-10T01:23:20;12.50;;;8.20;;
3643;SDS011;1838;50.742;7.158;2023-04-10T01:26:21;11.07;;;6.87;;
3643;SDS011;1838;50.742;7.158;2023-04-10T01:29:10;8.47;;;6.30;;
3643;SDS011;1838;50.742;7.158;2023-04-10T01:31:45;13.87;;;8.70;;
3643;SDS011;1838;50.742;7.158;2023-04-10T01:34:21;11.27;;;7.07;;
3643;SDS011;1838;50.742;7.158;2023-04-10T01:36:59;10.90;;;6.80;;
3643;SDS011;1838;50.742;7.158;2023-04-10T01:39:26;15.30;;;8.10;;
3643;SDS011;1838;50.742;7.158;2023-04-10T01:41:53;16.57;;;8.17;;
3643;SDS011;1838;50.742;7.158;2023-04-10T01:44:22;13.40;;;8.43;;
3643;SDS011;1838;50.742;7.158;2023-04-10T01:46:52;12.43;;;8.30;;
3643;SDS011;1838;50.742;7.158;2023-04-10T01:49:19;11.93;;;8.13;;
3643;SDS011;1838;50.742;7.158;2023-04-10T01:51:46;12.57;;;7.67;;
3643;SDS011;1838;50.742;7.158;2023-04-10T01:54:13;11.33;;;7.67;;
3643;SDS011;1838;50.742;7.158;2023-04-10T01:56:39;12.97;;;7.63;;
3643;SDS011;1838;50.742;7.158;2023-04-10T01:59:06;10.17;;;7.23;;
3643;SDS011;1838;50.742;7.158;2023-04-10T02:01:32;9.33;;;7.00;;
3643;SDS011;1838;50.742;7.158;2023-04-10T02:03:58;11.20;;;7.70;;
3643;SDS011;1838;50.742;7.158;2023-04-10T02:06:31;10.70;;;7.53;;
3643;SDS011;1838;50.742;7.158;2023-04-10T02:11:48;10.83;;;7.50;;
3643;SDS011;1838;50.742;7.158;2023-04-10T02:14:22;9.53;;;6.83;;
3643;SDS011;1838;50.742;7.158;2023-04-10T02:16:52;10.87;;;6.70;;
3643;SDS011;1838;50.742;7.158;2023-04-10T02:19:20;10.77;;;6.30;;
3643;SDS011;1838;50.742;7.158;2023-04-10T02:21:49;11.83;;;7.83;;
3643;SDS011;1838;50.742;7.158;2023-04-10T02:24:18;10.30;;;7.00;;
3643;SDS011;1838;50.742;7.158;2023-04-10T02:26:45;8.60;;;6.47;;
3643;SDS011;1838;50.742;7.158;2023-04-10T02:29:12;9.33;;;6.50;;
3643;SDS011;1838;50.742;7.158;2023-04-10T02:31:39;15.63;;;7.17;;
3643;SDS011;1838;50.742;7.158;2023-04-10T02:34:05;8.40;;;6.03;;
3643;SDS011;1838;50.742;7.158;2023-04-10T02:36:31;12.83;;;6.90;;
3643;SDS011;1838;50.742;7.158;2023-04-10T02:38:57;13.23;;;7.47;;
3643;SDS011;1838;50.742;7.158;2023-04-10T02:41:23;9.13;;;6.90;;
3643;SDS011;1838;50.742;7.158;2023-04-10T02:43:48;15.03;;;8.13;;
3643;SDS011;1838;50.742;7.158;2023-04-10T02:46:14;13.23;;;7.20;;
3643;SDS011;1838;50.742;7.158;2023-04-10T02:48:40;13.40;;;7.37;;
3643;SDS011;1838;50.742;7.158;2023-04-10T02:51:05;12.97;;;7.97;;
3643;SDS011;1838;50.742;7.158;2023-04-10T02:53:32;12.37;;;7.93;;
3643;SDS011;1838;50.742;7.158;2023-04-10T02:55:58;13.43;;;7.53;;
3643;SDS011;1838;50.742;7.158;2023-04-10T02:58:23;8.13;;;6.63;;
3643;SDS011;1838;50.742;7.158;2023-04-10T03:00:50;10.83;;;7.60;;
3643;SDS011;1838;50.742;7.158;2023-04-10T03:03:19;13.53;;;8.83;;
3643;SDS011;1838;50.742;7.158;2023-04-10T03:05:45;13.80;;;8.10;;
3643;SDS011;1838;50.742;7.158;2023-04-10T03:08:12;11.57;;;7.37;;
3643;SDS011;1838;50.742;7.158;2023-04-10T03:10:38;11.30;;;7.40;;
3643;SDS011;1838;50.742;7.158;2023-04-10T03:13:03;11.63;;;6.90;;
3643;SDS011;1838;50.742;7.158;2023-04-10T03:15:29;14.00;;;8.40;;
3643;SDS011;1838;50.742;7.158;2023-04-10T03:17:55;19.30;;;10.83;;
3643;SDS011;1838;50.742;7.158;2023-04-10T03:20:20;15.60;;;9.80;;
3643;SDS011;1838;50.742;7.158;2023-04-10T03:22:46;17.10;;;10.20;;
3643;SDS011;1838;50.742;7.158;2023-04-10T03:25:11;13.37;;;9.03;;
3643;SDS011;1838;50.742;7.158;2023-04-10T03:27:37;17.67;;;9.70;;
3643;SDS011;1838;50.742;7.158;2023-04-10T03:30:03;14.63;;;9.70;;
3643;SDS011;1838;50.742;7.158;2023-04-10T03:32:29;14.67;;;8.70;;
3643;SDS011;1838;50.742;7.158;2023-04-10T03:34:55;17.33;;;9.13;;
3643;SDS011;1838;50.742;7.158;2023-04-10T03:37:21;16.50;;;9.30;;
3643;SDS011;1838;50.742;7.158;2023-04-10T03:39:47;17.40;;;9.33;;
3643;SDS011;1838;50.742;7.158;2023-04-10T03:42:12;13.80;;;10.00;;
3643;SDS011;1838;50.742;7.158;2023-04-10T03:44:38;15.63;;;8.30;;
3643;SDS011;1838;50.742;7.158;2023-04-10T03:47:03;14.10;;;8.77;;
3643;SDS011;1838;50.742;7.158;2023-04-10T03:49:29;19.10;;;10.00;;
3643;SDS011;1838;50.742;7.158;2023-04-10T03:51:54;17.27;;;8.90;;
3643;SDS011;1838;50.742;7.158;2023-04-10T03:54:20;19.87;;;9.93;;
3643;SDS011;1838;50.742;7.158;2023-04-10T03:56:45;15.30;;;8.70;;
3643;SDS011;1838;50.742;7.158;2023-04-10T03:59:11;17.70;;;9.47;;
3643;SDS011;1838;50.742;7.158;2023-04-10T04:01:36;16.03;;;9.53;;
3643;SDS011;1838;50.742;7.158;2023-04-10T04:04:03;22.40;;;10.53;;
3643;SDS011;1838;50.742;7.158;2023-04-10T04:06:29;20.20;;;11.17;;
3643;SDS011;1838;50.742;7.158;2023-04-10T04:08:55;18.63;;;10.40;;
3643;SDS011;1838;50.742;7.158;2023-04-10T04:11:20;18.83;;;10.00;;
3643;SDS011;1838;50.742;7.158;2023-04-10T04:13:49;16.63;;;9.40;;
3643;SDS011;1838;50.742;7.158;2023-04-10T04:16:15;20.53;;;11.37;;
3643;SDS011;1838;50.742;7.158;2023-04-10T04:18:40;17.93;;;10.97;;
3643;SDS011;1838;50.742;7.158;2023-04-10T04:21:06;19.57;;;10.23;;
3643;SDS011;1838;50.742;7.158;2023-04-10T04:23:32;15.20;;;9.20;;
3643;SDS011;1838;50.742;7.158;2023-04-10T04:25:58;15.80;;;9.50;;
3643;SDS011;1838;50.742;7.158;2023-04-10T04:28:23;15.80;;;9.60;;
3643;SDS011;1838;50.742;7.158;2023-04-10T04:30:49;19.50;;;9.93;;
3643;SDS011;1838;50.742;7.158;2023-04-10T04:33:15;18.87;;;10.07;;
3643;SDS011;1838;50.742;7.158;2023-04-10T04:35:40;15.37;;;9.00;;
3643;SDS011;1838;50.742;7.158;2023-04-10T04:38:06;17.83;;;8.40;;
3643;SDS011;1838;50.742;7.158;2023-04-10T04:40:31;13.10;;;8.90;;
3643;SDS011;1838;50.742;7.158;2023-04-10T04:42:57;17.23;;;9.70;;
3643;SDS011;1838;50.742;7.158;2023-04-10T04:45:22;12.70;;;8.77;;
3643;SDS011;1838;50.742;7.158;2023-04-10T04:47:48;14.57;;;8.50;;
3643;SDS011;1838;50.742;7.158;2023-04-10T04:50:14;11.97;;;7.73;;
3643;SDS011;1838;50.742;7.158;2023-04-10T04:52:40;12.40;;;7.80;;
3643;SDS011;1838;50.742;7.158;2023-04-10T04:55:05;12.27;;;7.00;;
3643;SDS011;1838;50.742;7.158;2023-04-10T04:57:32;10.93;;;6.80;;
3643;SDS011;1838;50.742;7.158;2023-04-10T04:59:57;18.60;;;10.50;;
3643;SDS011;1838;50.742;7.158;2023-04-10T05:02:23;37.50;;;17.00;;
3643;SDS011;1838;50.742;7.158;2023-04-10T05:04:48;49.17;;;21.40;;
3643;SDS011;1838;50.742;7.158;2023-04-10T05:07:14;33.57;;;17.00;;
3643;SDS011;1838;50.742;7.158;2023-04-10T05:09:40;26.67;;;13.17;;
3643;SDS011;1838;50.742;7.158;2023-04-10T05:12:05;16.73;;;9.30;;
3643;SDS011;1838;50.742;7.158;2023-04-10T05:14:31;17.57;;;9.37;;
3643;SDS011;1838;50.742;7.158;2023-04-10T05:16:56;16.40;;;8.53;;
3643;SDS011;1838;50.742;7.158;2023-04-10T05:19:22;15.67;;;9.40;;
3643;SDS011;1838;50.742;7.158;2023-04-10T05:21:47;15.80;;;9.10;;
3643;SDS011;1838;50.742;7.158;2023-04-10T05:24:13;18.40;;;9.50;;
3643;SDS011;1838;50.742;7.158;2023-04-10T05:26:38;17.63;;;9.80;;
3643;SDS011;1838;50.742;7.158;2023-04-10T05:29:05;15.40;;;8.93;;
3643;SDS011;1838;50.742;7.158;2023-04-10T05:31:31;16.43;;;9.97;;
3643;SDS011;1838;50.742;7.158;2023-04-10T05:33:56;21.70;;;10.53;;
3643;SDS011;1838;50.742;7.158;2023-04-10T05:36:22;18.43;;;9.27;;
3643;SDS011;1838;50.742;7.158;2023-04-10T05:38:47;18.00;;;9.50;;
3643;SDS011;1838;50.742;7.158;2023-04-10T05:41:12;16.00;;;9.30;;
3643;SDS011;1838;50.742;7.158;2023-04-10T05:43:38;14.50;;;9.00;;
3643;SDS011;1838;50.742;7.158;2023-04-10T05:46:04;16.00;;;9.93;;
3643;SDS011;1838;50.742;7.158;2023-04-10T05:48:29;19.40;;;10.60;;
3643;SDS011;1838;50.742;7.158;2023-04-10T05:50:55;15.90;;;9.87;;
3643;SDS011;1838;50.742;7.158;2023-04-10T05:53:20;16.90;;;10.50;;
3643;SDS011;1838;50.742;7.158;2023-04-10T05:55:51;19.30;;;11.90;;
3643;SDS011;1838;50.742;7.158;2023-04-10T05:58:18;19.60;;;10.30;;
3643;SDS011;1838;50.742;7.158;2023-04-10T06:00:44;16.83;;;11.33;;
3643;SDS011;1838;50.742;7.158;2023-04-10T06:03:09;17.83;;;10.93;;
3643;SDS011;1838;50.742;7.158;2023-04-10T06:05:35;18.20;;;11.67;;
3643;SDS011;1838;50.742;7.158;2023-04-10T06:08:00;14.77;;;10.00;;
3643;SDS011;1838;50.742;7.158;2023-04-10T06:10:28;16.47;;;9.73;;
3643;SDS011;1838;50.742;7.158;2023-04-10T06:12:54;17.33;;;10.07;;
3643;SDS011;1838;50.742;7.158;2023-04-10T06:15:20;13.73;;;8.80;;
3643;SDS011;1838;50.742;7.158;2023-04-10T06:17:45;13.07;;;9.23;;
3643;SDS011;1838;50.742;7.158;2023-04-10T06:20:11;15.20;;;10.03;;
3643;SDS011;1838;50.742;7.158;2023-04-10T06:22:37;13.50;;;8.90;;
3643;SDS011;1838;50.742;7.158;2023-04-10T06:25:02;18.50;;;10.10;;
3643;SDS011;1838;50.742;7.158;2023-04-10T06:27:29;15.90;;;10.17;;
3643;SDS011;1838;50.742;7.158;2023-04-10T06:29:55;15.87;;;8.87;;
3643;SDS011;1838;50.742;7.158;2023-04-10T06:32:20;11.60;;;8.03;;
3643;SDS011;1838;50.742;7.158;2023-04-10T06:34:46;14.53;;;8.83;;
3643;SDS011;1838;50.742;7.158;2023-04-10T06:37:12;14.60;;;8.23;;
3643;SDS011;1838;50.742;7.158;2023-04-10T06:39:37;11.73;;;7.93;;
3643;SDS011;1838;50.742;7.158;2023-04-10T06:42:03;13.90;;;9.30;;
3643;SDS011;1838;50.742;7.158;2023-04-10T06:44:29;11.70;;;8.37;;
3643;SDS011;1838;50.742;7.158;2023-04-10T06:46:54;12.70;;;8.00;;
3643;SDS011;1838;50.742;7.158;2023-04-10T06:49:20;14.13;;;9.20;;
3643;SDS011;1838;50.742;7.158;2023-04-10T06:51:45;13.37;;;8.50;;
3643;SDS011;1838;50.742;7.158;2023-04-10T06:54:12;13.87;;;10.00;;
3643;SDS011;1838;50.742;7.158;2023-04-10T06:56:38;11.47;;;8.00;;
3643;SDS011;1838;50.742;7.158;2023-04-10T06:59:04;11.53;;;7.73;;
3643;SDS011;1838;50.742;7.158;2023-04-10T07:01:30;11.40;;;8.27;;
3643;SDS011;1838;50.742;7.158;2023-04-10T07:03:55;10.53;;;8.57;;
3643;SDS011;1838;50.742;7.158;2023-04-10T07:06:21;14.97;;;9.00;;
3643;SDS011;1838;50.742;7.158;2023-04-10T07:08:47;12.80;;;8.10;;
3643;SDS011;1838;50.742;7.158;2023-04-10T07:11:13;12.80;;;9.03;;
3643;SDS011;1838;50.742;7.158;2023-04-10T07:13:39;15.83;;;8.83;;
3643;SDS011;1838;50.742;7.158;2023-04-10T07:16:05;12.70;;;8.93;;
3643;SDS011;1838;50.742;7.158;2023-04-10T07:18:32;10.90;;;8.40;;
3643;SDS011;1838;50.742;7.158;2023-04-10T07:20:59;11.20;;;8.80;;
3643;SDS011;1838;50.742;7.158;2023-04-10T07:23:25;11.70;;;8.43;;
3643;SDS011;1838;50.742;7.158;2023-04-10T07:25:51;11.13;;;8.43;;
3643;SDS011;1838;50.742;7.158;2023-04-10T07:28:17;11.60;;;8.30;;
3643;SDS011;1838;50.742;7.158;2023-04-10T07:30:42;10.33;;;8.10;;
3643;SDS011;1838;50.742;7.158;2023-04-10T07:33:08;13.70;;;8.57;;
3643;SDS011;1838;50.742;7.158;2023-04-10T07:35:33;11.67;;;8.80;;
3643;SDS011;1838;50.742;7.158;2023-04-10T07:38:00;9.87;;;7.93;;
3643;SDS011;1838;50.742;7.158;2023-04-10T07:40:25;13.07;;;8.73;;
3643;SDS011;1838;50.742;7.158;2023-04-10T07:42:51;10.83;;;7.90;;
3643;SDS011;1838;50.742;7.158;2023-04-10T07:45:17;10.53;;;6.50;;
3643;SDS011;1838;50.742;7.158;2023-04-10T07:47:42;10.90;;;7.77;;
3643;SDS011;1838;50.742;7.158;2023-04-10T07:50:08;13.90;;;8.40;;
3643;SDS011;1838;50.742;7.158;2023-04-10T07:52:34;10.47;;;6.30;;
3643;SDS011;1838;50.742;7.158;2023-04-10T07:55:00;19.27;;;8.73;;
3643;SDS011;1838;50.742;7.158;2023-04-10T07:57:27;9.17;;;7.23;;
3643;SDS011;1838;50.742;7.158;2023-04-10T07:59:52;9.93;;;7.10;;
3643;SDS011;1838;50.742;7.158;2023-04-10T08:02:18;8.93;;;6.80;;
3643;SDS011;1838;50.742;7.158;2023-04-10T08:04:43;9.90;;;7.60;;
3643;SDS011;1838;50.742;7.158;2023-04-10T08:07:09;9.00;;;6.73;;
3643;SDS011;1838;50.742;7.158;2023-04-10T08:09:34;9.03;;;6.03;;
3643;SDS011;1838;50.742;7.158;2023-04-10T08:12:00;9.00;;;7.47;;
3643;SDS011;1838;50.742;7.158;2023-04-10T08:14:25;7.70;;;6.27;;
3643;SDS011;1838;50.742;7.158;2023-04-10T08:16:51;8.80;;;6.60;;
3643;SDS011;1838;50.742;7.158;2023-04-10T08:19:17;9.30;;;6.87;;
3643;SDS011;1838;50.742;7.158;2023-04-10T08:21:42;10.20;;;7.17;;
3643;SDS011;1838;50.742;7.158;2023-04-10T08:24:08;10.07;;;6.57;;
3643;SDS011;1838;50.742;7.158;2023-04-10T08:26:33;8.47;;;6.93;;
3643;SDS011;1838;50.742;7.158;2023-04-10T08:28:59;11.50;;;7.80;;
3643;SDS011;1838;50.742;7.158;2023-04-10T08:31:25;8.13;;;6.63;;
3643;SDS011;1838;50.742;7.158;2023-04-10T08:33:52;9.13;;;6.80;;
3643;SDS011;1838;50.742;7.158;2023-04-10T08:36:17;8.20;;;6.63;;
3643;SDS011;1838;50.742;7.158;2023-04-10T08:38:44;8.30;;;6.90;;
3643;SDS011;1838;50.742;7.158;2023-04-10T08:41:13;7.43;;;6.30;;
3643;SDS011;1838;50.742;7.158;2023-04-10T08:43:40;7.33;;;5.73;;
3643;SDS011;1838;50.742;7.158;2023-04-10T08:46:07;8.10;;;6.90;;
3643;SDS011;1838;50.742;7.158;2023-04-10T08:51:09;8.20;;;6.67;;
3643;SDS011;1838;50.742;7.158;2023-04-10T08:53:39;9.83;;;6.97;;
3643;SDS011;1838;50.742;7.158;2023-04-10T08:56:08;8.30;;;6.30;;
3643;SDS011;1838;50.742;7.158;2023-04-10T08:58:38;10.57;;;7.33;;
3643;SDS011;1838;50.742;7.158;2023-04-10T09:01:05;8.10;;;6.90;;
3643;SDS011;1838;50.742;7.158;2023-04-10T09:03:31;8.30;;;6.53;;
3643;SDS011;1838;50.742;7.158;2023-04-10T09:05:57;9.30;;;7.47;;
3643;SDS011;1838;50.742;7.158;2023-04-10T09:08:27;7.80;;;6.67;;
3643;SDS011;1838;50.742;7.158;2023-04-10T09:10:53;9.57;;;7.50;;
3643;SDS011;1838;50.742;7.158;2023-04-10T09:13:41;7.30;;;5.80;;
3643;SDS011;1838;50.742;7.158;2023-04-10T09:16:06;8.97;;;7.07;;
3643;SDS011;1838;50.742;7.158;2023-04-10T09:18:48;9.20;;;7.17;;
3643;SDS011;1838;50.742;7.158;2023-04-10T09:21:18;8.80;;;6.80;;
3643;SDS011;1838;50.742;7.158;2023-04-10T09:23:45;10.70;;;7.23;;
3643;SDS011;1838;50.742;7.158;2023-04-10T09:26:28;8.10;;;7.10;;
3643;SDS011;1838;50.742;7.158;2023-04-10T09:29:02;9.83;;;6.90;;
3643;SDS011;1838;50.742;7.158;2023-04-10T09:31:32;7.97;;;6.40;;
3643;SDS011;1838;50.742;7.158;2023-04-10T09:34:06;9.63;;;7.03;;
3643;SDS011;1838;50.742;7.158;2023-04-10T09:36:39;7.00;;;6.10;;
3643;SDS011;1838;50.742;7.158;2023-04-10T09:39:06;7.40;;;5.90;;
3643;SDS011;1838;50.742;7.158;2023-04-10T09:41:33;8.90;;;6.43;;
3643;SDS011;1838;50.742;7.158;2023-04-10T09:44:08;8.10;;;6.20;;
3643;SDS011;1838;50.742;7.158;2023-04-10T09:46:35;6.73;;;5.87;;
3643;SDS011;1838;50.742;7.158;2023-04-10T09:49:01;6.70;;;5.67;;
3643;SDS011;1838;50.742;7.158;2023-04-10T09:51:30;7.53;;;5.90;;
3643;SDS011;1838;50.742;7.158;2023-04-10T09:53:58;8.10;;;6.50;;
3643;SDS011;1838;50.742;7.158;2023-04-10T09:56:24;6.40;;;5.40;;
3643;SDS011;1838;50.742;7.158;2023-04-10T09:58:52;6.23;;;5.40;;
3643;SDS011;1838;50.742;7.158;2023-04-10T10:01:20;6.93;;;5.60;;
3643;SDS011;1838;50.742;7.158;2023-04-10T10:03:46;6.87;;;5.40;;
3643;SDS011;1838;50.742;7.158;2023-04-10T10:06:11;5.87;;;5.03;;
3643;SDS011;1838;50.742;7.158;2023-04-10T10:08:37;6.00;;;5.00;;
3643;SDS011;1838;50.742;7.158;2023-04-10T10:11:04;6.57;;;5.43;;
3643;SDS011;1838;50.742;7.158;2023-04-10T10:13:40;6.70;;;6.00;;
3643;SDS011;1838;50.742;7.158;2023-04-10T10:19:00;6.70;;;5.40;;
3643;SDS011;1838;50.742;7.158;2023-04-10T10:21:34;6.77;;;5.80;;
3643;SDS011;1838;50.742;7.158;2023-04-10T10:24:00;5.77;;;5.17;;
3643;SDS011;1838;50.742;7.158;2023-04-10T10:26:27;5.17;;;4.53;;
3643;SDS011;1838;50.742;7.158;2023-04-10T10:28:56;8.47;;;4.50;;
3643;SDS011;1838;50.742;7.158;2023-04-10T10:31:24;5.63;;;4.80;;
3643;SDS011;1838;50.742;7.158;2023-04-10T10:33:55;6.10;;;5.33;;
3643;SDS011;1838;50.742;7.158;2023-04-10T10:36:21;5.97;;;5.00;;
3643;SDS011;1838;50.742;7.158;2023-04-10T10:38:57;6.77;;;5.43;;
3643;SDS011;1838;50.742;7.158;2023-04-10T10:44:50;6.00;;;4.50;;
3643;SDS011;1838;50.742;7.158;2023-04-10T10:47:48;5.47;;;4.93;;
3643;SDS011;1838;50.742;7.158;2023-04-10T10:50:17;5.33;;;4.83;;
3643;SDS011;1838;50.742;7.158;2023-04-10T10:52:47;6.10;;;4.90;;
3643;SDS011;1838;50.742;7.158;2023-04-10T10:57:52;5.13;;;4.63;;
3643;SDS011;1838;50.742;7.158;2023-04-10T11:00:19;5.93;;;5.17;;
3643;SDS011;1838;50.742;7.158;2023-04-10T11:05:47;5.23;;;4.43;;
3643;SDS011;1838;50.742;7.158;2023-04-10T11:08:33;4.87;;;4.47;;
3643;SDS011;1838;50.742;7.158;2023-04-10T11:13:35;4.73;;;4.07;;
3643;SDS011;1838;50.742;7.158;2023-04-10T11:16:07;7.20;;;5.27;;
3643;SDS011;1838;50.742;7.158;2023-04-10T11:21:17;4.60;;;4.20;;
3643;SDS011;1838;50.742;7.158;2023-04-10T11:32:00;6.57;;;4.00;;
3643;SDS011;1838;50.742;7.158;2023-04-10T11:34:27;3.70;;;3.40;;
3643;SDS011;1838;50.742;7.158;2023-04-10T11:36:57;4.50;;;3.47;;
3643;SDS011;1838;50.742;7.158;2023-04-10T11:39:26;5.03;;;4.13;;
3643;SDS011;1838;50.742;7.158;2023-04-10T11:41:52;3.97;;;3.63;;
3643;SDS011;1838;50.742;7.158;2023-04-10T11:44:26;3.13;;;2.83;;
3643;SDS011;1838;50.742;7.158;2023-04-10T11:46:54;4.07;;;3.47;;
3643;SDS011;1838;50.742;7.158;2023-04-10T11:49:21;4.30;;;3.47;;
3643;SDS011;1838;50.742;7.158;2023-04-10T11:51:57;4.50;;;3.50;;
3643;SDS011;1838;50.742;7.158;2023-04-10T11:54:23;3.37;;;3.07;;
3643;SDS011;1838;50.742;7.158;2023-04-10T11:57:02;6.57;;;3.07;;
3643;SDS011;1838;50.742;7.158;2023-04-10T11:59:30;3.30;;;3.00;;
3643;SDS011;1838;50.742;7.158;2023-04-10T12:02:04;3.67;;;3.30;;
3643;SDS011;1838;50.742;7.158;2023-04-10T12:04:38;3.77;;;2.63;;
3643;SDS011;1838;50.742;7.158;2023-04-10T12:07:04;3.17;;;2.87;;
3643;SDS011;1838;50.742;7.158;2023-04-10T12:09:30;3.10;;;2.50;;
3643;SDS011;1838;50.742;7.158;2023-04-10T12:11:57;3.87;;;3.57;;
3643;SDS011;1838;50.742;7.158;2023-04-10T12:14:37;3.93;;;3.60;;
3643;SDS011;1838;50.742;7.158;2023-04-10T12:17:06;3.60;;;3.30;;
3643;SDS011;1838;50.742;7.158;2023-04-10T12:19:34;3.47;;;3.17;;
3643;SDS011;1838;50.742;7.158;2023-04-10T12:22:00;3.57;;;3.10;;
3643;SDS011;1838;50.742;7.158;2023-04-10T12:24:42;4.10;;;3.23;;
3643;SDS011;1838;50.742;7.158;2023-04-10T12:27:16;3.47;;;2.90;;
3643;SDS011;1838;50.742;7.158;2023-04-10T12:29:46;4.33;;;2.90;;
3643;SDS011;1838;50.742;7.158;2023-04-10T12:32:12;3.90;;;2.87;;
3643;SDS011;1838;50.742;7.158;2023-04-10T12:34:38;4.07;;;3.47;;
3643;SDS011;1838;50.742;7.158;2023-04-10T12:37:04;3.90;;;3.17;;
3643;SDS011;1838;50.742;7.158;2023-04-10T12:39:30;4.60;;;3.00;;
3643;SDS011;1838;50.742;7.158;2023-04-10T12:45:03;7.50;;;2.70;;
3643;SDS011;1838;50.742;7.158;2023-04-10T12:47:30;3.60;;;2.67;;
3643;SDS011;1838;50.742;7.158;2023-04-10T12:52:40;2.77;;;2.43;;
3643;SDS011;1838;50.742;7.158;2023-04-10T12:55:17;4.43;;;3.33;;
3643;SDS011;1838;50.742;7.158;2023-04-10T12:57:44;2.97;;;2.67;;
3643;SDS011;1838;50.742;7.158;2023-04-10T13:00:14;3.43;;;3.07;;
3643;SDS011;1838;50.742;7.158;2023-04-10T13:02:41;4.77;;;3.67;;
3643;SDS011;1838;50.742;7.158;2023-04-10T13:05:07;5.17;;;3.77;;
3643;SDS011;1838;50.742;7.158;2023-04-10T13:07:33;3.20;;;2.87;;
3643;SDS011;1838;50.742;7.158;2023-04-10T13:10:00;4.33;;;2.87;;
3643;SDS011;1838;50.742;7.158;2023-04-10T13:12:26;3.40;;;2.77;;
3643;SDS011;1838;50.742;7.158;2023-04-10T13:14:53;3.40;;;3.10;;
3643;SDS011;1838;50.742;7.158;2023-04-10T13:17:19;3.90;;;3.60;;
3643;SDS011;1838;50.742;7.158;2023-04-10T13:19:45;3.20;;;2.90;;
3643;SDS011;1838;50.742;7.158;2023-04-10T13:22:11;4.50;;;3.00;;
3643;SDS011;1838;50.742;7.158;2023-04-10T13:24:36;3.77;;;3.37;;
3643;SDS011;1838;50.742;7.158;2023-04-10T13:27:02;4.33;;;3.93;;
3643;SDS011;1838;50.742;7.158;2023-04-10T13:29:28;4.00;;;3.33;;
3643;SDS011;1838;50.742;7.158;2023-04-10T13:31:54;3.73;;;3.43;;
3643;SDS011;1838;50.742;7.158;2023-04-10T13:34:19;3.10;;;2.80;;
3643;SDS011;1838;50.742;7.158;2023-04-10T13:36:45;4.70;;;3.43;;
3643;SDS011;1838;50.742;7.158;2023-04-10T13:39:10;3.80;;;3.50;;
3643;SDS011;1838;50.742;7.158;2023-04-10T13:41:36;4.07;;;3.63;;
3643;SDS011;1838;50.742;7.158;2023-04-10T13:44:11;3.47;;;2.90;;
3643;SDS011;1838;50.742;7.158;2023-04-10T13:46:37;3.50;;;3.20;;
3643;SDS011;1838;50.742;7.158;2023-04-10T13:49:02;3.00;;;2.67;;
3643;SDS011;1838;50.742;7.158;2023-04-10T13:51:28;3.20;;;2.90;;
3643;SDS011;1838;50.742;7.158;2023-04-10T13:53:54;5.30;;;3.13;;
3643;SDS011;1838;50.742;7.158;2023-04-10T13:56:19;3.40;;;3.10;;
3643;SDS011;1838;50.742;7.158;2023-04-10T13:58:45;3.30;;;2.83;;
3643;SDS011;1838;50.742;7.158;2023-04-10T14:01:11;4.23;;;2.90;;
3643;SDS011;1838;50.742;7.158;2023-04-10T14:03:37;3.03;;;2.73;;
3643;SDS011;1838;50.742;7.158;2023-04-10T14:06:02;6.90;;;2.87;;
3643;SDS011;1838;50.742;7.158;2023-04-10T14:08:28;3.63;;;3.33;;
3643;SDS011;1838;50.742;7.158;2023-04-10T14:10:54;3.40;;;3.00;;
3643;SDS011;1838;50.742;7.158;2023-04-10T14:13:20;4.80;;;2.77;;
3643;SDS011;1838;50.742;7.158;2023-04-10T14:15:45;6.27;;;3.27;;
3643;SDS011;1838;50.742;7.158;2023-04-10T14:18:11;2.70;;;2.47;;
3643;SDS011;1838;50.742;7.158;2023-04-10T14:20:37;3.20;;;2.70;;
3643;SDS011;1838;50.742;7.158;2023-04-10T14:23:06;2.93;;;2.63;;
3643;SDS011;1838;50.742;7.158;2023-04-10T14:25:31;3.07;;;2.67;;
3643;SDS011;1838;50.742;7.158;2023-04-10T14:27:57;3.80;;;3.40;;
3643;SDS011;1838;50.742;7.158;2023-04-10T14:30:23;3.00;;;2.70;;
3643;SDS011;1838;50.742;7.158;2023-04-10T14:32:56;3.13;;;2.83;;
3643;SDS011;1838;50.742;7.158;2023-04-10T14:35:22;3.40;;;3.10;;
3643;SDS011;1838;50.742;7.158;2023-04-10T14:37:48;3.07;;;2.77;;
3643;SDS011;1838;50.742;7.158;2023-04-10T14:40:14;4.13;;;2.77;;
3643;SDS011;1838;50.742;7.158;2023-04-10T14:42:40;5.43;;;3.00;;
3643;SDS011;1838;50.742;7.158;2023-04-10T14:45:05;2.90;;;2.50;;
3643;SDS011;1838;50.742;7.158;2023-04-10T14:47:31;4.80;;;2.70;;
3643;SDS011;1838;50.742;7.158;2023-04-10T14:49:57;3.87;;;2.90;;
3643;SDS011;1838;50.742;7.158;2023-04-10T14:52:22;3.10;;;2.30;;
3643;SDS011;1838;50.742;7.158;2023-04-10T14:54:48;3.93;;;2.40;;
3643;SDS011;1838;50.742;7.158;2023-04-10T14:57:14;4.37;;;3.00;;
3643;SDS011;1838;50.742;7.158;2023-04-10T14:59:41;3.43;;;2.70;;
3643;SDS011;1838;50.742;7.158;2023-04-10T15:02:06;3.43;;;2.30;;
3643;SDS011;1838;50.742;7.158;2023-04-10T15:04:32;7.20;;;2.63;;
3643;SDS011;1838;50.742;7.158;2023-04-10T15:06:58;3.93;;;2.67;;
3643;SDS011;1838;50.742;7.158;2023-04-10T15:09:23;3.00;;;2.43;;
3643;SDS011;1838;50.742;7.158;2023-04-10T15:11:49;3.33;;;2.90;;
3643;SDS011;1838;50.742;7.158;2023-04-10T15:14:14;3.70;;;2.30;;
3643;SDS011;1838;50.742;7.158;2023-04-10T15:16:40;2.77;;;2.43;;
3643;SDS011;1838;50.742;7.158;2023-04-10T15:19:06;2.70;;;2.50;;
3643;SDS011;1838;50.742;7.158;2023-04-10T15:21:32;2.60;;;2.40;;
3643;SDS011;1838;50.742;7.158;2023-04-10T15:23:58;3.00;;;2.70;;
3643;SDS011;1838;50.742;7.158;2023-04-10T15:26:23;3.80;;;3.40;;
3643;SDS011;1838;50.742;7.158;2023-04-10T15:28:49;3.23;;;2.80;;
3643;SDS011;1838;50.742;7.158;2023-04-10T15:31:14;3.83;;;3.43;;
3643;SDS011;1838;50.742;7.158;2023-04-10T15:33:40;3.30;;;3.00;;
3643;SDS011;1838;50.742;7.158;2023-04-10T15:36:06;4.33;;;2.93;;
3643;SDS011;1838;50.742;7.158;2023-04-10T15:38:33;3.30;;;3.00;;
3643;SDS011;1838;50.742;7.158;2023-04-10T15:41:00;3.23;;;2.93;;
3643;SDS011;1838;50.742;7.158;2023-04-10T15:43:25;2.90;;;2.60;;
3643;SDS011;1838;50.742;7.158;2023-04-10T15:45:51;3.00;;;2.43;;
3643;SDS011;1838;50.742;7.158;2023-04-10T15:48:17;3.20;;;2.90;;